createdAt,value
2022-08-03T00:01:50.103Z,19.94
2022-08-03T00:04:16.637Z,19.88
2022-08-03T00:06:43.160Z,19.86
2022-08-03T00:09:10.159Z,19.84
2022-08-03T00:11:36.796Z,19.83
2022-08-03T00:14:05.388Z,19.82
2022-08-03T00:16:38.067Z,19.81
2022-08-03T00:19:05.156Z,19.80
2022-08-03T00:21:31.870Z,19.79
2022-08-03T00:23:58.359Z,19.79
2022-08-03T00:26:24.936Z,19.75
2022-08-03T00:28:51.419Z,19.74
2022-08-03T00:31:28.386Z,19.70
2022-08-03T00:34:06.009Z,19.66
2022-08-03T00:36:33.626Z,19.63
2022-08-03T00:39:00.758Z,19.58
2022-08-03T00:41:28.184Z,19.51
2022-08-03T00:43:54.616Z,19.40
2022-08-03T00:46:23.235Z,19.34
2022-08-03T00:48:50.280Z,19.25
2022-08-03T00:51:16.830Z,19.23
2022-08-03T00:53:43.509Z,19.19
2022-08-03T00:56:13.784Z,19.20
2022-08-03T00:58:40.416Z,19.13
2022-08-03T01:01:07.271Z,19.10
2022-08-03T01:03:34.453Z,19.06
2022-08-03T01:06:34.307Z,19.03
2022-08-03T01:09:19.687Z,19.02
2022-08-03T01:12:22.006Z,19.00
2022-08-03T01:15:00.268Z,19.00
2022-08-03T01:17:36.862Z,18.99
2022-08-03T01:20:13.642Z,18.99
2022-08-03T01:23:29.056Z,18.95
2022-08-03T01:26:20.287Z,18.94
2022-08-03T01:29:02.646Z,18.90
2022-08-03T01:32:54.511Z,18.92
2022-08-03T01:34:34.370Z,18.93
2022-08-03T01:37:05.470Z,18.96
2022-08-03T01:39:32.885Z,18.95
2022-08-03T01:42:06.186Z,18.98
2022-08-03T01:44:40.226Z,19.02
2022-08-03T01:47:08.569Z,19.01
2022-08-03T01:49:43.291Z,19.00
2022-08-03T01:52:11.386Z,18.94
2022-08-03T01:54:43.182Z,18.91
2022-08-03T01:57:13.999Z,18.88
2022-08-03T01:59:42.909Z,18.87
2022-08-03T02:02:32.369Z,18.85
2022-08-03T02:05:01.945Z,18.83
2022-08-03T02:07:30.698Z,18.83
2022-08-03T02:09:59.660Z,18.81
2022-08-03T02:12:29.954Z,18.80
2022-08-03T02:14:59.934Z,18.75
2022-08-03T02:17:39.501Z,18.73
2022-08-03T02:20:08.374Z,18.68
2022-08-03T02:22:35.950Z,18.64
2022-08-03T02:25:02.653Z,18.65
2022-08-03T02:27:31.935Z,18.66
2022-08-03T02:30:03.611Z,18.66
2022-08-03T02:32:40.162Z,18.63
2022-08-03T02:35:13.251Z,18.55
2022-08-03T02:37:49.698Z,18.50
2022-08-03T02:40:19.059Z,18.50
2022-08-03T02:42:47.216Z,18.55
2022-08-03T02:45:16.424Z,18.55
2022-08-03T02:47:53.238Z,18.56
2022-08-03T02:50:23.310Z,18.55
2022-08-03T02:52:52.246Z,18.50
2022-08-03T02:55:21.036Z,18.46
2022-08-03T02:57:48.661Z,18.39
2022-08-03T03:00:27.320Z,18.32
2022-08-03T03:02:57.462Z,18.30
2022-08-03T03:05:54.960Z,18.25
2022-08-03T03:08:18.526Z,18.29
2022-08-03T03:10:46.477Z,18.34
2022-08-03T03:13:15.676Z,18.35
2022-08-03T03:15:44.586Z,18.30
2022-08-03T03:18:12.693Z,18.28
2022-08-03T03:20:40.830Z,18.29
2022-08-03T03:23:09.205Z,18.29
2022-08-03T03:25:36.215Z,18.25
2022-08-03T03:28:06.378Z,18.19
2022-08-03T03:30:34.509Z,18.08
2022-08-03T03:33:02.913Z,18.04
2022-08-03T03:35:30.875Z,18.03
2022-08-03T03:38:09.400Z,18.02
2022-08-03T03:40:36.991Z,18.00
2022-08-03T03:43:08.824Z,18.03
2022-08-03T03:45:35.925Z,18.08
2022-08-03T03:48:05.502Z,18.05
2022-08-03T03:50:33.778Z,17.96
2022-08-03T03:53:02.770Z,17.87
2022-08-03T03:55:30.937Z,17.90
2022-08-03T03:57:57.383Z,17.82
2022-08-03T04:00:24.155Z,17.82
2022-08-03T04:02:50.999Z,17.85
2022-08-03T04:05:36.246Z,17.87
2022-08-03T04:08:21.932Z,17.93
2022-08-03T04:11:02.781Z,17.95
2022-08-03T04:13:34.412Z,17.94
2022-08-03T04:16:03.077Z,17.88
2022-08-03T04:18:32.898Z,17.93
2022-08-03T04:21:04.472Z,17.93
2022-08-03T04:23:34.672Z,17.87
2022-08-03T04:26:03.731Z,17.89
2022-08-03T04:28:32.757Z,17.98
2022-08-03T04:31:04.453Z,18.05
2022-08-03T04:33:34.958Z,18.09
2022-08-03T04:36:05.898Z,18.11
2022-08-03T04:38:36.714Z,18.07
2022-08-03T04:41:04.056Z,18.13
2022-08-03T04:43:33.645Z,18.22
2022-08-03T04:46:01.678Z,18.27
2022-08-03T04:48:28.633Z,18.29
2022-08-03T04:50:55.167Z,18.33
2022-08-03T04:53:21.812Z,18.36
2022-08-03T04:55:49.880Z,18.38
2022-08-03T04:58:16.548Z,18.41
2022-08-03T05:00:43.320Z,18.44
2022-08-03T05:03:23.884Z,18.47
2022-08-03T05:05:53.073Z,18.54
2022-08-03T05:08:29.007Z,18.58
2022-08-03T05:10:59.051Z,18.62
2022-08-03T05:13:26.673Z,18.65
2022-08-03T05:15:53.095Z,18.69
2022-08-03T05:18:19.718Z,18.73
2022-08-03T05:20:46.205Z,18.78
2022-08-03T05:23:12.802Z,18.83
2022-08-03T05:25:39.452Z,18.91
2022-08-03T05:28:06.007Z,18.98
2022-08-03T05:30:33.910Z,19.01
2022-08-03T05:33:02.352Z,19.16
2022-08-03T05:35:57.767Z,19.24
2022-08-03T05:38:24.068Z,19.34
2022-08-03T05:40:57.460Z,19.43
2022-08-03T05:43:41.530Z,19.52
2022-08-03T05:46:12.510Z,19.61
2022-08-03T05:48:39.959Z,19.71
2022-08-03T05:51:08.398Z,19.80
2022-08-03T05:53:35.584Z,19.87
2022-08-03T05:56:03.589Z,19.97
2022-08-03T05:58:42.540Z,20.07
2022-08-03T06:01:09.029Z,20.17
2022-08-03T06:03:35.754Z,20.27
2022-08-03T06:06:03.967Z,20.36
2022-08-03T06:08:30.772Z,20.48
2022-08-03T06:10:57.448Z,20.59
2022-08-03T06:13:24.982Z,20.69
2022-08-03T06:15:51.426Z,20.82
2022-08-03T06:18:17.925Z,20.96
2022-08-03T06:20:44.358Z,21.12
2022-08-03T06:23:15.983Z,21.27
2022-08-03T06:25:43.067Z,21.40
2022-08-03T06:28:18.935Z,21.55
2022-08-03T06:30:55.594Z,21.65
2022-08-03T06:33:22.000Z,21.75
2022-08-03T06:35:48.452Z,21.88
2022-08-03T06:38:14.904Z,22.02
2022-08-03T06:40:41.548Z,22.21
2022-08-03T06:43:12.204Z,22.32
2022-08-03T06:45:39.501Z,22.50
2022-08-03T06:48:11.261Z,22.70
2022-08-03T06:50:39.603Z,22.86
2022-08-03T06:53:06.160Z,22.96
2022-08-03T06:55:33.020Z,23.11
2022-08-03T06:58:00.105Z,23.17
2022-08-03T07:00:30.985Z,23.27
2022-08-03T07:02:58.410Z,23.33
2022-08-03T07:05:25.345Z,23.30
2022-08-03T07:07:55.674Z,23.38
2022-08-03T07:10:22.187Z,23.43
2022-08-03T07:12:55.546Z,23.48
2022-08-03T07:15:53.999Z,23.56
2022-08-03T07:18:09.771Z,23.68
2022-08-03T07:20:36.266Z,23.78
2022-08-03T07:23:03.134Z,23.86
2022-08-03T07:25:29.734Z,23.97
2022-08-03T07:27:56.351Z,24.11
2022-08-03T07:30:30.567Z,24.14
2022-08-03T07:32:57.105Z,24.29
2022-08-03T07:35:25.511Z,24.42
2022-08-03T07:37:54.520Z,24.54
2022-08-03T07:40:22.019Z,24.64
2022-08-03T07:42:48.565Z,24.69
2022-08-03T07:45:21.332Z,24.78
2022-08-03T07:47:53.750Z,24.96
2022-08-03T07:50:20.701Z,25.13
2022-08-03T07:52:51.261Z,25.26
2022-08-03T07:55:19.973Z,25.41
2022-08-03T07:57:47.349Z,25.62
2022-08-03T08:00:17.170Z,25.90
2022-08-03T08:02:44.633Z,26.21
2022-08-03T08:05:12.462Z,26.48
2022-08-03T08:07:40.036Z,26.61
2022-08-03T08:10:09.954Z,26.66
2022-08-03T08:12:37.695Z,26.78
2022-08-03T08:15:04.790Z,27.00
2022-08-03T08:17:31.574Z,27.03
2022-08-03T08:19:58.260Z,27.11
2022-08-03T08:22:30.772Z,27.11
2022-08-03T08:24:59.697Z,27.04
2022-08-03T08:28:22.540Z,26.96
2022-08-03T08:30:24.676Z,27.00
2022-08-03T08:32:51.327Z,27.19
2022-08-03T08:35:18.479Z,27.21
2022-08-03T08:37:51.147Z,27.33
2022-08-03T08:40:20.930Z,27.49
2022-08-03T08:42:57.908Z,27.53
2022-08-03T08:45:25.377Z,27.63
2022-08-03T08:47:54.735Z,27.70
2022-08-03T08:50:27.789Z,27.85
2022-08-03T08:52:55.352Z,28.02
2022-08-03T08:55:24.549Z,28.13
2022-08-03T08:58:03.118Z,28.12
2022-08-03T09:00:30.933Z,28.21
2022-08-03T09:02:57.731Z,28.28
2022-08-03T09:05:54.607Z,28.38
2022-08-03T09:08:11.327Z,28.49
2022-08-03T09:10:37.779Z,28.59
2022-08-03T09:13:04.390Z,28.70
2022-08-03T09:15:33.272Z,28.69
2022-08-03T09:18:02.487Z,28.67
2022-08-03T09:20:32.429Z,28.71
2022-08-03T09:23:20.235Z,28.88
2022-08-03T09:25:59.877Z,28.82
2022-08-03T09:28:53.936Z,28.83
2022-08-03T09:31:34.138Z,28.91
2022-08-03T09:34:07.784Z,29.00
2022-08-03T09:36:49.164Z,28.99
2022-08-03T09:39:41.582Z,29.12
2022-08-03T09:42:15.012Z,29.12
2022-08-03T09:44:44.015Z,29.31
2022-08-03T09:47:12.180Z,29.15
2022-08-03T09:49:41.539Z,28.99
2022-08-03T09:52:32.567Z,29.21
2022-08-03T09:55:02.300Z,29.19
2022-08-03T09:57:33.306Z,29.17
2022-08-03T10:00:14.668Z,29.29
2022-08-03T10:02:43.273Z,29.53
2022-08-03T10:05:19.625Z,29.61
2022-08-03T10:07:48.908Z,29.58
2022-08-03T10:10:32.048Z,29.77
2022-08-03T10:13:03.475Z,29.80
2022-08-03T10:16:22.945Z,29.89
2022-08-03T10:18:17.979Z,29.98
2022-08-03T10:20:49.819Z,30.14
2022-08-03T10:23:18.192Z,30.08
2022-08-03T10:25:49.323Z,30.14
2022-08-03T10:28:18.751Z,30.14
2022-08-03T10:30:50.308Z,30.37
2022-08-03T10:33:50.971Z,30.43
2022-08-03T10:36:09.513Z,30.50
2022-08-03T10:38:52.364Z,30.35
2022-08-03T10:41:21.619Z,30.39
2022-08-03T10:43:54.958Z,30.45
2022-08-03T10:46:21.467Z,30.32
2022-08-03T10:48:50.534Z,30.20
2022-08-03T10:51:20.067Z,30.37
2022-08-03T10:53:52.812Z,30.41
2022-08-03T10:56:53.542Z,30.37
2022-08-03T10:59:46.055Z,30.61
2022-08-03T11:02:14.116Z,30.91
2022-08-03T11:04:41.347Z,30.91
2022-08-03T11:07:23.441Z,31.24
2022-08-03T11:09:56.089Z,31.21
2022-08-03T11:12:30.780Z,31.18
2022-08-03T11:15:01.150Z,31.12
2022-08-03T11:17:28.053Z,30.93
2022-08-03T11:19:56.979Z,31.00
2022-08-03T11:22:26.380Z,31.02
2022-08-03T11:24:57.281Z,30.95
2022-08-03T11:27:26.225Z,30.87
2022-08-03T11:30:27.633Z,30.54
2022-08-03T11:32:57.928Z,30.61
2022-08-03T11:35:36.047Z,30.93
2022-08-03T11:38:05.540Z,31.09
2022-08-03T11:40:49.943Z,31.21
2022-08-03T11:43:22.158Z,31.28
2022-08-03T11:45:58.085Z,31.65
2022-08-03T11:48:28.703Z,31.84
2022-08-03T11:50:55.225Z,31.62
2022-08-03T11:53:21.645Z,31.51
2022-08-03T11:55:53.129Z,31.67
2022-08-03T11:59:18.754Z,31.73
2022-08-03T12:01:08.761Z,32.01
2022-08-03T12:03:36.219Z,32.10
2022-08-03T12:06:04.429Z,32.30
2022-08-03T12:08:33.449Z,32.16
2022-08-03T12:11:03.248Z,32.36
2022-08-03T12:14:43.764Z,32.41
2022-08-03T12:16:26.036Z,32.43
2022-08-03T12:19:00.136Z,32.68
2022-08-03T12:21:28.101Z,32.72
2022-08-03T12:24:04.975Z,32.48
2022-08-03T12:26:45.093Z,32.53
2022-08-03T12:29:26.002Z,32.70
2022-08-03T12:31:52.739Z,32.79
2022-08-03T12:34:19.186Z,33.01
2022-08-03T12:36:53.810Z,33.01
2022-08-03T12:39:25.157Z,32.93
2022-08-03T12:41:56.058Z,33.02
2022-08-03T12:44:33.751Z,33.03
2022-08-03T12:47:02.065Z,33.29
2022-08-03T12:49:30.483Z,33.29
2022-08-03T12:52:03.925Z,33.12
2022-08-03T12:54:36.078Z,32.98
2022-08-03T12:57:11.087Z,32.94
2022-08-03T12:59:53.179Z,32.71
2022-08-03T13:02:23.716Z,32.84
2022-08-03T13:04:52.720Z,32.97
2022-08-03T13:07:20.318Z,33.12
2022-08-03T13:09:50.419Z,33.09
2022-08-03T13:12:19.154Z,32.96
2022-08-03T13:14:48.673Z,32.88
2022-08-03T13:17:18.623Z,33.11
2022-08-03T13:19:46.653Z,33.28
2022-08-03T13:22:25.138Z,33.17
2022-08-03T13:24:55.744Z,33.14
2022-08-03T13:28:04.259Z,33.09
2022-08-03T13:30:09.868Z,33.00
2022-08-03T13:32:36.761Z,33.16
2022-08-03T13:35:04.481Z,33.24
2022-08-03T13:37:32.698Z,33.45
2022-08-03T13:40:03.011Z,33.38
2022-08-03T13:42:33.456Z,33.49
2022-08-03T13:45:00.582Z,33.55
2022-08-03T13:47:28.121Z,33.66
2022-08-03T13:50:00.136Z,33.28
2022-08-03T13:52:34.388Z,33.22
2022-08-03T13:55:03.443Z,33.16
2022-08-03T13:58:05.277Z,33.36
2022-08-03T14:00:27.226Z,33.47
2022-08-03T14:03:02.809Z,33.56
2022-08-03T14:05:32.350Z,33.72
2022-08-03T14:08:03.918Z,33.60
2022-08-03T14:10:36.088Z,33.83
2022-08-03T14:13:04.738Z,33.73
2022-08-03T14:15:31.541Z,33.34
2022-08-03T14:17:58.630Z,32.96
2022-08-03T14:20:38.084Z,32.55
2022-08-03T14:23:06.754Z,32.69
2022-08-03T14:25:50.479Z,32.84
2022-08-03T14:28:23.415Z,33.01
2022-08-03T14:30:54.481Z,32.93
2022-08-03T14:33:21.261Z,33.02
2022-08-03T14:35:48.625Z,33.15
2022-08-03T14:38:15.767Z,33.29
2022-08-03T14:40:42.328Z,33.25
2022-08-03T14:43:09.191Z,33.25
2022-08-03T14:45:35.721Z,33.45
2022-08-03T14:50:32.766Z,33.37
2022-08-03T14:50:52.427Z,33.54
2022-08-03T14:53:19.722Z,33.44
2022-08-03T14:55:50.546Z,33.41
2022-08-03T14:58:27.835Z,33.45
2022-08-03T15:00:55.731Z,33.56
2022-08-03T15:03:24.896Z,33.54
2022-08-03T15:05:56.744Z,33.52
2022-08-03T15:08:25.263Z,33.49
2022-08-03T15:10:52.523Z,33.55
2022-08-03T15:13:19.859Z,33.66
2022-08-03T15:15:47.799Z,33.55
2022-08-03T15:18:14.276Z,33.44
2022-08-03T15:20:45.583Z,33.34
2022-08-03T15:23:14.893Z,33.18
2022-08-03T15:26:28.085Z,33.18
2022-08-03T15:28:29.031Z,33.15
2022-08-03T15:30:55.439Z,32.89
2022-08-03T15:33:21.921Z,32.80
2022-08-03T15:35:49.675Z,32.64
2022-08-03T15:38:16.154Z,32.52
2022-08-03T15:40:42.621Z,32.45
2022-08-03T15:43:11.209Z,32.35
2022-08-03T15:45:37.865Z,32.28
2022-08-03T15:48:06.339Z,32.30
2022-08-03T15:50:33.667Z,32.31
2022-08-03T15:53:00.091Z,32.36
2022-08-03T15:55:27.829Z,32.41
2022-08-03T15:59:09.105Z,32.26
2022-08-03T16:00:42.368Z,32.43
2022-08-03T16:03:09.562Z,32.66
2022-08-03T16:05:36.666Z,33.02
2022-08-03T16:08:05.634Z,33.17
2022-08-03T16:10:33.767Z,33.31
2022-08-03T16:13:00.627Z,33.35
2022-08-03T16:15:27.977Z,33.54
2022-08-03T16:17:55.210Z,33.66
2022-08-03T16:20:31.711Z,33.64
2022-08-03T16:23:07.024Z,33.42
2022-08-03T16:25:42.411Z,33.22
2022-08-03T16:28:13.984Z,33.14
2022-08-03T16:30:42.745Z,32.94
2022-08-03T16:33:09.302Z,32.97
2022-08-03T16:35:36.422Z,33.03
2022-08-03T16:38:09.312Z,33.00
2022-08-03T16:40:37.038Z,33.11
2022-08-03T16:43:18.623Z,33.11
2022-08-03T16:45:47.234Z,32.94
2022-08-03T16:48:16.879Z,32.77
2022-08-03T16:50:44.225Z,32.48
2022-08-03T16:53:16.363Z,32.18
2022-08-03T16:55:53.307Z,31.86
2022-08-03T16:58:34.618Z,32.00
2022-08-03T17:01:22.230Z,32.18
2022-08-03T17:04:01.201Z,32.27
2022-08-03T17:06:33.817Z,32.40
2022-08-03T17:09:26.630Z,32.38
2022-08-03T17:12:05.365Z,32.39
2022-08-03T17:14:34.707Z,32.27
2022-08-03T17:17:04.636Z,32.24
2022-08-03T17:19:39.159Z,32.30
2022-08-03T17:22:11.969Z,32.18
2022-08-03T17:24:42.228Z,32.19
2022-08-03T17:28:41.310Z,32.13
2022-08-03T17:30:12.144Z,31.92
2022-08-03T17:32:56.525Z,31.71
2022-08-03T17:35:24.802Z,31.56
2022-08-03T17:38:03.708Z,31.47
2022-08-03T17:40:31.773Z,31.31
2022-08-03T17:43:00.641Z,31.27
2022-08-03T17:45:52.434Z,31.22
2022-08-03T17:48:18.558Z,31.22
2022-08-03T17:51:00.308Z,31.08
2022-08-03T17:53:30.529Z,31.05
2022-08-03T17:56:46.305Z,30.89
2022-08-03T17:59:15.545Z,30.80
2022-08-03T18:02:26.459Z,30.74
2022-08-03T18:05:16.361Z,30.58
2022-08-03T18:07:59.306Z,30.48
2022-08-03T18:10:34.945Z,30.34
2022-08-03T18:13:10.331Z,30.24
2022-08-03T18:15:42.380Z,30.11
2022-08-03T18:18:11.300Z,29.97
2022-08-03T18:20:42.084Z,29.81
2022-08-03T18:23:25.261Z,29.63
2022-08-03T18:26:02.705Z,29.47
2022-08-03T18:28:57.082Z,29.36
2022-08-03T18:31:59.961Z,29.25
2022-08-03T18:34:18.571Z,29.13
2022-08-03T18:37:04.362Z,29.03
2022-08-03T18:39:49.253Z,28.94
2022-08-03T18:42:19.440Z,28.80
2022-08-03T18:44:54.377Z,28.71
2022-08-03T18:47:52.446Z,28.61
2022-08-03T18:50:28.398Z,28.49
2022-08-03T18:53:03.899Z,28.41
2022-08-03T18:56:08.367Z,28.30
2022-08-03T18:59:02.251Z,28.20
2022-08-03T19:01:59.952Z,28.10
2022-08-03T19:04:33.100Z,27.97
2022-08-03T19:07:36.034Z,27.87
2022-08-03T19:10:06.674Z,27.78
2022-08-03T19:12:54.403Z,27.72
2022-08-03T19:15:36.493Z,27.66
2022-08-03T19:18:11.150Z,27.57
2022-08-03T19:20:38.030Z,27.49
2022-08-03T19:23:05.030Z,27.44
2022-08-03T19:25:41.718Z,27.34
2022-08-03T19:28:11.168Z,27.27
2022-08-03T19:30:39.984Z,27.16
2022-08-03T19:33:11.033Z,27.06
2022-08-03T19:38:29.911Z,26.89
2022-08-03T19:41:00.684Z,26.84
2022-08-03T19:43:49.275Z,26.76
2022-08-03T19:46:30.602Z,26.65
2022-08-03T19:49:15.088Z,26.53
2022-08-03T19:51:58.994Z,26.43
2022-08-03T19:54:45.472Z,26.31
2022-08-03T19:57:23.033Z,26.24
2022-08-03T19:59:52.410Z,26.17
2022-08-03T20:02:26.205Z,26.14
2022-08-03T20:04:59.782Z,26.07
2022-08-03T20:07:34.091Z,26.00
2022-08-03T20:10:04.186Z,25.96
2022-08-03T20:12:38.722Z,25.91
2022-08-03T20:15:07.316Z,25.84
2022-08-03T20:17:55.902Z,25.77
2022-08-03T20:20:25.547Z,25.72
2022-08-03T20:22:57.719Z,25.65
2022-08-03T20:25:38.264Z,25.61
2022-08-03T20:28:13.875Z,25.52
2022-08-03T20:30:43.664Z,25.47
2022-08-03T20:33:10.622Z,25.29
2022-08-03T20:35:37.228Z,25.10
2022-08-03T20:38:10.311Z,25.00
2022-08-03T20:40:41.105Z,24.96
2022-08-03T20:43:08.598Z,24.87
2022-08-03T20:46:00.075Z,24.85
2022-08-03T20:48:23.286Z,24.85
2022-08-03T20:50:51.073Z,24.85
2022-08-03T20:53:57.345Z,24.83
2022-08-03T20:56:05.488Z,24.74
2022-08-03T20:58:35.777Z,24.71
2022-08-03T21:01:04.074Z,24.68
2022-08-03T21:03:40.635Z,24.59
2022-08-03T21:06:27.709Z,24.54
2022-08-03T21:09:05.142Z,24.35
2022-08-03T21:11:44.652Z,24.26
2022-08-03T21:13:02.506Z,26.99
2022-08-03T21:14:23.470Z,24.21
2022-08-03T21:16:52.137Z,24.19
2022-08-03T21:19:22.514Z,24.17
2022-08-03T21:21:50.237Z,24.19
2022-08-03T21:24:18.100Z,24.18
2022-08-03T21:26:47.374Z,24.25
2022-08-03T21:29:16.778Z,24.23
2022-08-03T21:31:43.487Z,24.27
2022-08-03T21:34:10.594Z,24.24
2022-08-03T21:36:37.994Z,24.22
2022-08-03T21:39:08.374Z,24.16
2022-08-03T21:41:36.874Z,24.10
2022-08-03T21:44:04.658Z,24.00
2022-08-03T21:46:40.574Z,23.94
2022-08-03T21:50:07.320Z,23.90
2022-08-03T21:51:58.638Z,23.84
2022-08-03T21:54:40.835Z,23.82
2022-08-03T21:57:24.075Z,23.83
2022-08-03T21:59:55.596Z,23.81
2022-08-03T22:02:27.995Z,23.74
2022-08-03T22:04:58.608Z,23.74
2022-08-03T22:07:32.310Z,23.73
2022-08-03T22:10:01.088Z,23.73
2022-08-03T22:12:30.549Z,23.76
2022-08-03T22:15:00.583Z,23.76
2022-08-03T22:17:55.332Z,23.74
2022-08-03T22:20:20.214Z,23.72
2022-08-03T22:22:52.151Z,23.64
2022-08-03T22:25:28.906Z,23.52
2022-08-03T22:27:57.070Z,23.34
2022-08-03T22:30:23.945Z,23.25
2022-08-03T22:32:53.258Z,23.19
2022-08-03T22:35:21.277Z,23.12
2022-08-03T22:37:53.426Z,23.10
2022-08-03T22:40:19.981Z,23.05
2022-08-03T22:42:50.616Z,23.05
2022-08-03T22:46:06.139Z,23.08
2022-08-03T22:48:10.936Z,22.80
2022-08-03T22:50:38.320Z,22.79
2022-08-03T22:53:07.463Z,22.76
2022-08-03T22:55:34.333Z,22.74
2022-08-03T22:58:00.825Z,22.73
2022-08-03T23:00:27.268Z,22.82
2022-08-03T23:02:54.926Z,22.87
2022-08-03T23:06:02.272Z,22.87
2022-08-03T23:08:15.197Z,22.88
2022-08-03T23:10:47.014Z,22.83
2022-08-03T23:13:17.027Z,22.76
2022-08-03T23:15:51.401Z,22.80
2022-08-03T23:18:21.907Z,22.78
2022-08-03T23:20:52.474Z,22.78
2022-08-03T23:23:20.605Z,22.78
2022-08-03T23:25:50.453Z,22.79
2022-08-03T23:28:17.756Z,22.76
2022-08-03T23:30:45.001Z,22.72
2022-08-03T23:33:13.745Z,22.74
2022-08-03T23:36:27.552Z,22.75
2022-08-03T23:38:47.249Z,22.68
2022-08-03T23:41:17.453Z,22.61
2022-08-03T23:43:51.978Z,22.58
2022-08-03T23:46:22.019Z,22.53
2022-08-03T23:48:48.561Z,22.47
2022-08-03T23:51:40.259Z,22.38
2022-08-03T23:54:22.205Z,22.33
2022-08-03T23:57:03.242Z,22.31
